createdAt,value
2023-08-24T00:00:59.134Z,21.80
2023-08-24T00:03:28.883Z,21.90
2023-08-24T00:06:25.707Z,21.90
2023-08-24T00:08:55.229Z,21.90
2023-08-24T00:11:33.160Z,22.00
2023-08-24T00:14:12.269Z,22.00
2023-08-24T00:16:42.723Z,22.00
2023-08-24T00:19:14.573Z,21.80
2023-08-24T00:21:43.990Z,21.70
2023-08-24T00:24:14.988Z,21.40
2023-08-24T00:26:51.251Z,21.40
2023-08-24T00:29:19.515Z,21.40
2023-08-24T00:31:48.345Z,21.40
2023-08-24T00:34:19.474Z,21.30
2023-08-24T00:36:49.885Z,21.30
2023-08-24T00:39:18.917Z,21.40
2023-08-24T00:41:51.152Z,21.50
2023-08-24T00:44:21.011Z,21.50
2023-08-24T00:46:51.967Z,21.40
2023-08-24T00:49:21.622Z,21.30
2023-08-24T00:51:52.410Z,21.10
2023-08-24T00:54:21.059Z,21.20
2023-08-24T00:56:50.236Z,21.20
2023-08-24T00:59:28.521Z,21.10
2023-08-24T01:02:06.035Z,21.10
2023-08-24T01:04:35.876Z,21.00
2023-08-24T01:07:05.906Z,21.00
2023-08-24T01:09:37.040Z,21.00
2023-08-24T01:12:53.261Z,21.10
2023-08-24T01:15:38.780Z,21.20
2023-08-24T01:18:26.583Z,21.10
2023-08-24T01:21:04.383Z,21.00
2023-08-24T01:24:00.620Z,21.00
2023-08-24T01:26:29.470Z,21.00
2023-08-24T01:28:59.638Z,21.10
2023-08-24T01:31:36.262Z,21.10
2023-08-24T01:34:07.361Z,21.10
2023-08-24T01:36:40.436Z,21.10
2023-08-24T01:39:36.029Z,21.10
2023-08-24T01:42:25.072Z,21.10
2023-08-24T01:45:00.795Z,20.90
2023-08-24T01:47:37.292Z,20.70
2023-08-24T01:50:08.747Z,20.60
2023-08-24T01:52:47.293Z,20.60
2023-08-24T01:55:24.497Z,20.70
2023-08-24T01:57:53.602Z,21.00
2023-08-24T02:00:22.824Z,21.00
2023-08-24T02:02:51.318Z,21.20
2023-08-24T02:05:22.396Z,21.20
2023-08-24T02:07:49.748Z,21.20
2023-08-24T02:10:20.966Z,21.10
2023-08-24T02:12:49.575Z,21.00
2023-08-24T02:15:19.618Z,20.90
2023-08-24T02:17:46.838Z,20.90
2023-08-24T02:20:24.191Z,20.80
2023-08-24T02:22:53.421Z,20.80
2023-08-24T02:25:22.324Z,20.90
2023-08-24T02:27:51.519Z,21.00
2023-08-24T02:30:31.701Z,21.00
2023-08-24T02:33:00.102Z,20.80
2023-08-24T02:35:29.526Z,21.00
2023-08-24T02:38:00.687Z,20.80
2023-08-24T02:40:29.485Z,20.80
2023-08-24T02:42:59.558Z,20.80
2023-08-24T02:45:26.666Z,20.70
2023-08-24T02:47:56.844Z,20.70
2023-08-24T02:50:24.672Z,20.60
2023-08-24T02:52:54.866Z,20.80
2023-08-24T02:55:28.893Z,20.80
2023-08-24T02:57:56.411Z,20.70
2023-08-24T03:00:25.333Z,20.70
2023-08-24T03:03:00.347Z,20.70
2023-08-24T03:05:29.477Z,20.60
2023-08-24T03:07:56.852Z,20.70
2023-08-24T03:10:27.373Z,20.70
2023-08-24T03:12:57.971Z,20.70
2023-08-24T03:15:30.146Z,20.80
2023-08-24T03:17:59.171Z,20.80
2023-08-24T03:20:27.748Z,20.80
2023-08-24T03:22:57.956Z,20.60
2023-08-24T03:25:28.769Z,20.50
2023-08-24T03:28:01.406Z,20.40
2023-08-24T03:30:31.630Z,20.40
2023-08-24T03:33:03.363Z,20.40
2023-08-24T03:35:41.078Z,20.50
2023-08-24T03:38:11.164Z,20.50
2023-08-24T03:40:47.693Z,20.50
2023-08-24T03:43:18.080Z,20.50
2023-08-24T03:45:55.752Z,20.60
2023-08-24T03:48:32.856Z,20.60
2023-08-24T03:51:01.525Z,20.50
2023-08-24T03:53:32.797Z,20.60
2023-08-24T03:56:00.068Z,20.50
2023-08-24T03:58:28.679Z,20.60
2023-08-24T04:00:58.796Z,20.70
2023-08-24T04:03:28.685Z,20.70
2023-08-24T04:05:58.840Z,20.70
2023-08-24T04:08:36.016Z,20.50
2023-08-24T04:11:04.444Z,20.40
2023-08-24T04:13:34.283Z,20.30
2023-08-24T04:16:14.751Z,20.40
2023-08-24T04:18:43.132Z,20.40
2023-08-24T04:21:11.596Z,20.50
2023-08-24T04:24:10.497Z,20.40
2023-08-24T04:26:40.563Z,20.40
2023-08-24T04:29:09.375Z,20.40
2023-08-24T04:31:46.764Z,20.60
2023-08-24T04:34:25.555Z,20.70
2023-08-24T04:36:54.823Z,20.80
2023-08-24T04:39:25.326Z,21.10
2023-08-24T04:42:01.102Z,21.50
2023-08-24T04:44:29.347Z,21.70
2023-08-24T04:46:59.202Z,22.20
2023-08-24T04:49:34.410Z,22.60
2023-08-24T04:52:03.713Z,23.20
2023-08-24T04:54:36.131Z,23.70
2023-08-24T04:57:13.667Z,23.80
2023-08-24T04:59:42.950Z,23.70
2023-08-24T05:02:12.875Z,23.80
2023-08-24T05:04:43.801Z,24.20
2023-08-24T05:07:11.140Z,24.10
2023-08-24T05:09:47.640Z,24.30
2023-08-24T05:12:23.744Z,24.10
2023-08-24T05:14:52.050Z,24.20
2023-08-24T05:17:19.964Z,24.10
2023-08-24T05:19:55.235Z,24.10
2023-08-24T05:22:27.592Z,24.00
2023-08-24T05:24:55.045Z,24.10
2023-08-24T05:27:24.025Z,24.10
2023-08-24T05:30:00.162Z,24.30
2023-08-24T05:32:36.299Z,24.60
2023-08-24T05:35:04.950Z,25.20
2023-08-24T05:37:36.875Z,25.40
2023-08-24T05:40:16.154Z,25.70
2023-08-24T05:42:45.836Z,26.70
2023-08-24T05:45:14.297Z,27.40
2023-08-24T05:47:45.272Z,28.30
2023-08-24T05:50:14.073Z,28.00
2023-08-24T05:52:42.695Z,28.40
2023-08-24T05:55:12.580Z,28.00
2023-08-24T05:57:44.846Z,28.50
2023-08-24T06:00:15.348Z,28.20
2023-08-24T06:02:52.623Z,27.50
2023-08-24T06:05:22.539Z,27.40
2023-08-24T06:07:53.064Z,27.40
2023-08-24T06:10:29.738Z,27.40
2023-08-24T06:12:58.353Z,26.60
2023-08-24T06:15:32.973Z,26.40
2023-08-24T06:18:03.099Z,27.40
2023-08-24T06:20:36.687Z,28.30
2023-08-24T06:23:05.304Z,29.50
2023-08-24T06:25:33.824Z,31.00
2023-08-24T06:28:05.212Z,31.90
2023-08-24T06:30:38.733Z,32.20
2023-08-24T06:33:09.416Z,30.60
2023-08-24T06:35:38.223Z,28.10
2023-08-24T06:38:27.364Z,28.30
2023-08-24T06:40:57.156Z,29.20
2023-08-24T06:43:31.032Z,30.10
2023-08-24T06:45:58.896Z,30.90
2023-08-24T06:48:30.384Z,31.50
2023-08-24T06:50:57.553Z,30.80
2023-08-24T06:53:27.864Z,31.00
2023-08-24T06:56:01.135Z,31.70
2023-08-24T06:58:29.949Z,31.80
2023-08-24T07:00:58.759Z,31.50
2023-08-24T07:03:30.823Z,32.70
2023-08-24T07:06:01.076Z,33.30
2023-08-24T07:08:29.344Z,34.00
2023-08-24T07:10:59.666Z,34.60
2023-08-24T07:13:30.152Z,35.20
2023-08-24T07:16:00.903Z,33.50
2023-08-24T07:18:38.240Z,31.70
2023-08-24T07:21:14.226Z,32.60
2023-08-24T07:23:42.355Z,32.90
2023-08-24T07:26:12.473Z,32.90
2023-08-24T07:28:42.441Z,33.30
2023-08-24T07:31:13.289Z,33.20
2023-08-24T07:33:45.175Z,32.90
2023-08-24T07:36:15.076Z,32.70
2023-08-24T07:38:45.534Z,32.60
2023-08-24T07:41:20.477Z,32.80
2023-08-24T07:43:49.450Z,33.50
2023-08-24T07:46:19.349Z,33.50
2023-08-24T07:48:46.708Z,33.30
2023-08-24T07:51:17.233Z,33.20
2023-08-24T07:53:47.713Z,33.20
2023-08-24T07:56:17.317Z,31.80
2023-08-24T07:58:45.759Z,31.60
2023-08-24T08:01:14.775Z,31.70
2023-08-24T08:03:43.548Z,31.00
2023-08-24T08:06:15.023Z,30.10
2023-08-24T08:08:49.045Z,29.60
2023-08-24T08:11:20.535Z,29.80
2023-08-24T08:13:52.014Z,30.80
2023-08-24T08:16:21.123Z,30.00
2023-08-24T08:18:49.651Z,30.40
2023-08-24T08:21:22.670Z,30.80
2023-08-24T08:24:02.302Z,29.90
2023-08-24T08:26:31.128Z,29.20
2023-08-24T08:28:59.954Z,28.50
2023-08-24T08:31:28.764Z,28.50
2023-08-24T08:33:58.578Z,29.00
2023-08-24T08:36:29.805Z,29.10
2023-08-24T08:39:00.587Z,29.30
2023-08-24T08:41:41.096Z,29.10
2023-08-24T08:44:08.359Z,28.60
2023-08-24T08:46:41.960Z,28.40
2023-08-24T08:49:13.614Z,28.70
2023-08-24T08:51:43.101Z,29.00
2023-08-24T08:54:20.128Z,29.40
2023-08-24T08:56:49.202Z,29.60
2023-08-24T08:59:18.893Z,29.70
2023-08-24T09:01:48.938Z,29.50
2023-08-24T09:04:23.529Z,29.40
2023-08-24T09:07:03.635Z,29.70
2023-08-24T09:09:41.681Z,29.90
2023-08-24T09:12:13.529Z,29.90
2023-08-24T09:14:45.436Z,29.90
2023-08-24T09:17:26.199Z,30.00
2023-08-24T09:20:09.069Z,29.70
2023-08-24T09:22:43.478Z,29.30
2023-08-24T09:25:13.459Z,29.30
2023-08-24T09:27:43.674Z,29.50
2023-08-24T09:30:22.815Z,29.70
2023-08-24T09:32:52.281Z,29.80
2023-08-24T09:35:26.048Z,29.70
2023-08-24T09:38:03.590Z,29.40
2023-08-24T09:40:40.648Z,29.30
2023-08-24T09:43:16.019Z,29.10
2023-08-24T09:46:05.814Z,29.60
2023-08-24T09:48:35.728Z,29.90
2023-08-24T09:51:08.069Z,29.80
2023-08-24T09:53:45.608Z,29.40
2023-08-24T09:56:21.145Z,29.30
2023-08-24T09:58:52.994Z,29.10
2023-08-24T10:01:22.522Z,29.20
2023-08-24T10:03:54.334Z,29.30
2023-08-24T10:06:25.704Z,29.10
2023-08-24T10:09:08.731Z,28.90
2023-08-24T10:11:54.001Z,28.90
2023-08-24T10:15:02.293Z,29.20
2023-08-24T10:17:34.531Z,29.70
2023-08-24T10:20:11.723Z,30.10
2023-08-24T10:22:46.877Z,30.30
2023-08-24T10:25:15.371Z,30.20
2023-08-24T10:27:49.487Z,30.20
2023-08-24T10:30:18.047Z,29.90
2023-08-24T10:32:53.897Z,30.00
2023-08-24T10:35:31.280Z,29.90
2023-08-24T10:38:02.153Z,30.00
2023-08-24T10:40:45.949Z,30.10
2023-08-24T10:43:14.967Z,30.10
2023-08-24T10:46:04.143Z,29.80
2023-08-24T10:49:01.197Z,29.60
2023-08-24T10:51:35.799Z,29.70
2023-08-24T10:54:05.709Z,29.90
2023-08-24T10:57:04.307Z,30.00
2023-08-24T10:59:50.885Z,30.10
2023-08-24T11:02:22.129Z,30.20
2023-08-24T11:05:11.771Z,29.70
2023-08-24T11:08:06.259Z,29.30
2023-08-24T11:10:48.452Z,29.70
2023-08-24T11:13:27.633Z,30.00
2023-08-24T11:16:03.063Z,30.20
2023-08-24T11:18:34.857Z,30.30
2023-08-24T11:21:07.060Z,30.50
2023-08-24T11:23:39.095Z,30.70
2023-08-24T11:26:06.344Z,30.70
2023-08-24T11:28:42.050Z,30.70
2023-08-24T11:31:14.761Z,30.60
2023-08-24T11:33:44.993Z,30.80
2023-08-24T11:36:21.987Z,30.60
2023-08-24T11:39:01.347Z,30.70
2023-08-24T11:41:29.919Z,30.80
2023-08-24T11:44:15.038Z,30.80
2023-08-24T11:47:01.384Z,30.60
2023-08-24T11:49:28.682Z,30.50
2023-08-24T11:51:59.694Z,30.50
2023-08-24T11:54:30.805Z,30.30
2023-08-24T11:57:05.769Z,30.30
2023-08-24T11:59:33.684Z,30.50
2023-08-24T12:02:04.667Z,30.70
2023-08-24T12:04:44.999Z,30.90
2023-08-24T12:07:19.945Z,30.90
2023-08-24T12:09:49.140Z,30.70
2023-08-24T12:12:28.483Z,30.70
2023-08-24T12:15:00.658Z,30.80
2023-08-24T12:17:31.042Z,30.50
2023-08-24T12:20:17.312Z,30.30
2023-08-24T12:23:07.546Z,30.00
2023-08-24T12:26:01.232Z,30.00
2023-08-24T12:28:31.181Z,30.00
2023-08-24T12:31:07.500Z,30.00
2023-08-24T12:33:37.784Z,30.10
2023-08-24T12:36:10.415Z,30.40
2023-08-24T12:38:41.284Z,30.70
2023-08-24T12:41:12.453Z,30.80
2023-08-24T12:43:51.151Z,30.90
2023-08-24T12:46:28.336Z,31.00
2023-08-24T12:48:58.158Z,30.40
2023-08-24T12:51:34.278Z,30.20
2023-08-24T12:54:04.457Z,30.20
2023-08-24T12:56:35.836Z,30.30
2023-08-24T12:59:03.013Z,30.60
2023-08-24T13:01:34.058Z,30.60
2023-08-24T13:04:02.808Z,30.70
2023-08-24T13:06:31.759Z,30.60
2023-08-24T13:09:08.715Z,30.30
2023-08-24T13:11:46.962Z,29.90
2023-08-24T13:14:14.325Z,29.70
2023-08-24T13:16:47.866Z,29.60
2023-08-24T13:19:17.566Z,29.40
2023-08-24T13:21:45.072Z,29.40
2023-08-24T13:24:13.634Z,29.60
2023-08-24T13:26:44.113Z,29.80
2023-08-24T13:29:17.836Z,29.50
2023-08-24T13:31:45.304Z,29.80
2023-08-24T13:34:12.928Z,29.70
2023-08-24T13:36:41.907Z,29.90
2023-08-24T13:39:13.090Z,30.20
2023-08-24T13:41:43.469Z,30.60
2023-08-24T13:44:17.438Z,31.00
2023-08-24T13:46:48.621Z,31.10
2023-08-24T13:49:38.475Z,30.80
2023-08-24T13:52:14.441Z,30.80
2023-08-24T13:54:59.575Z,30.70
2023-08-24T13:57:45.959Z,30.80
2023-08-24T14:00:22.483Z,31.00
2023-08-24T14:03:00.736Z,31.00
2023-08-24T14:05:38.077Z,31.00
2023-08-24T14:08:09.608Z,30.80
2023-08-24T14:10:40.124Z,30.70
2023-08-24T14:13:10.117Z,30.50
2023-08-24T14:15:48.215Z,30.30
2023-08-24T14:18:19.089Z,30.20
2023-08-24T14:20:55.934Z,30.00
2023-08-24T14:23:25.851Z,29.70
2023-08-24T14:25:57.382Z,29.80
2023-08-24T14:28:56.693Z,30.10
2023-08-24T14:31:30.917Z,30.30
2023-08-24T14:33:59.028Z,30.40
2023-08-24T14:36:26.272Z,30.50
2023-08-24T14:38:54.902Z,30.20
2023-08-24T14:41:24.668Z,29.90
2023-08-24T14:43:54.972Z,29.80
2023-08-24T14:46:23.693Z,29.90
2023-08-24T14:48:53.487Z,30.10
2023-08-24T14:51:22.627Z,30.30
2023-08-24T14:53:59.878Z,30.30
2023-08-24T14:56:37.068Z,30.20
2023-08-24T14:59:08.117Z,30.20
2023-08-24T15:01:38.676Z,30.10
2023-08-24T15:04:08.701Z,30.10
2023-08-24T15:06:40.169Z,30.10
2023-08-24T15:09:08.739Z,30.00
2023-08-24T15:11:46.054Z,30.10
2023-08-24T15:14:14.938Z,30.00
2023-08-24T15:16:43.616Z,30.10
2023-08-24T15:19:12.309Z,30.00
2023-08-24T15:21:43.876Z,29.90
2023-08-24T15:24:21.208Z,29.80
2023-08-24T15:27:01.801Z,29.70
2023-08-24T15:29:31.548Z,29.60
2023-08-24T15:32:02.217Z,29.60
2023-08-24T15:34:32.057Z,29.70
2023-08-24T15:37:04.175Z,29.80
2023-08-24T15:39:41.355Z,30.00
2023-08-24T15:42:10.779Z,30.10
2023-08-24T15:44:41.043Z,30.20
2023-08-24T15:47:09.879Z,30.00
2023-08-24T15:49:39.157Z,29.90
2023-08-24T15:52:16.288Z,29.80
2023-08-24T15:54:44.931Z,29.80
2023-08-24T15:57:14.565Z,29.60
2023-08-24T15:59:45.460Z,29.70
2023-08-24T16:02:14.054Z,30.00
2023-08-24T16:04:42.772Z,30.00
2023-08-24T16:07:11.467Z,30.10
2023-08-24T16:09:41.547Z,30.00
2023-08-24T16:12:11.996Z,29.90
2023-08-24T16:14:39.923Z,29.70
2023-08-24T16:17:07.260Z,29.40
2023-08-24T16:19:35.872Z,29.30
2023-08-24T16:22:10.190Z,29.20
2023-08-24T16:24:39.997Z,29.30
2023-08-24T16:27:10.871Z,29.30
2023-08-24T16:29:39.315Z,29.30
2023-08-24T16:32:10.094Z,29.40
2023-08-24T16:34:50.590Z,29.20
2023-08-24T16:37:30.897Z,29.20
2023-08-24T16:40:00.839Z,29.10
2023-08-24T16:42:36.125Z,29.10
2023-08-24T16:45:07.331Z,29.00
2023-08-24T16:47:36.586Z,28.90
2023-08-24T16:50:07.211Z,29.00
2023-08-24T16:52:46.990Z,29.10
2023-08-24T16:55:24.591Z,29.20
2023-08-24T16:57:54.454Z,29.10
2023-08-24T17:00:33.350Z,29.10
2023-08-24T17:03:04.612Z,29.10
2023-08-24T17:05:38.337Z,28.90
2023-08-24T17:08:18.608Z,28.80
2023-08-24T17:10:51.420Z,28.60
2023-08-24T17:13:21.826Z,28.50
2023-08-24T17:15:54.301Z,28.40
2023-08-24T17:18:24.170Z,28.20
2023-08-24T17:20:52.868Z,28.20
2023-08-24T17:23:21.935Z,28.00
2023-08-24T17:25:53.390Z,27.90
2023-08-24T17:28:30.130Z,27.70
2023-08-24T17:30:57.443Z,27.70
2023-08-24T17:33:24.829Z,27.70
2023-08-24T17:35:52.058Z,27.60
2023-08-24T17:38:21.904Z,27.60
2023-08-24T17:40:52.484Z,27.60
2023-08-24T17:43:21.104Z,27.50
2023-08-24T17:45:51.942Z,27.50
2023-08-24T17:48:29.113Z,27.50
2023-08-24T17:51:03.179Z,27.50
2023-08-24T17:53:39.670Z,27.50
2023-08-24T17:58:49.206Z,27.30
2023-08-24T18:01:19.113Z,27.30
2023-08-24T18:03:49.163Z,27.20
2023-08-24T18:06:19.110Z,27.20
2023-08-24T18:08:57.321Z,27.20
2023-08-24T18:11:26.233Z,27.20
2023-08-24T18:13:54.347Z,27.20
2023-08-24T18:16:24.411Z,27.10
2023-08-24T18:18:53.388Z,27.10
2023-08-24T18:21:22.014Z,27.00
2023-08-24T18:23:50.036Z,27.00
2023-08-24T18:26:18.519Z,26.90
2023-08-24T18:28:49.029Z,26.80
2023-08-24T18:31:19.507Z,26.80
2023-08-24T18:33:49.950Z,26.80
2023-08-24T18:36:18.247Z,26.70
2023-08-24T18:38:55.629Z,26.70
2023-08-24T18:41:22.975Z,26.70
2023-08-24T18:43:51.284Z,26.70
2023-08-24T18:46:19.794Z,26.70
2023-08-24T18:48:53.848Z,26.70
2023-08-24T18:51:24.225Z,26.60
2023-08-24T18:53:54.440Z,26.70
2023-08-24T18:56:31.617Z,26.60
2023-08-24T18:59:00.073Z,26.60
2023-08-24T19:01:28.765Z,26.50
2023-08-24T19:03:58.014Z,26.50
2023-08-24T19:06:41.641Z,26.40
2023-08-24T19:09:14.858Z,26.30
2023-08-24T19:11:42.204Z,26.20
2023-08-24T19:14:19.634Z,26.20
2023-08-24T19:16:49.536Z,26.20
2023-08-24T19:19:22.265Z,26.30
2023-08-24T19:21:51.282Z,26.30
2023-08-24T19:24:21.711Z,26.20
2023-08-24T19:26:52.425Z,26.20
2023-08-24T19:29:21.012Z,26.20
2023-08-24T19:31:52.894Z,26.10
2023-08-24T19:34:22.781Z,26.10
2023-08-24T19:36:53.984Z,26.00
2023-08-24T19:39:22.417Z,26.10
2023-08-24T19:42:00.106Z,26.00
2023-08-24T19:44:39.274Z,26.10
2023-08-24T19:47:07.083Z,26.10
2023-08-24T19:49:45.109Z,26.10
2023-08-24T19:52:15.822Z,26.10
2023-08-24T19:54:44.513Z,26.10
2023-08-24T19:57:18.683Z,26.10
2023-08-24T19:59:47.719Z,26.10
2023-08-24T20:02:18.541Z,26.00
2023-08-24T20:04:56.113Z,25.90
2023-08-24T20:07:25.030Z,25.90
2023-08-24T20:09:56.691Z,25.90
2023-08-24T20:12:26.198Z,25.80
2023-08-24T20:14:55.974Z,25.80
2023-08-24T20:17:31.200Z,25.70
2023-08-24T20:20:06.214Z,25.70
2023-08-24T20:22:38.014Z,25.70
2023-08-24T20:25:06.660Z,25.70
2023-08-24T20:27:35.242Z,25.50
2023-08-24T20:30:08.851Z,25.50
2023-08-24T20:32:46.514Z,25.50
2023-08-24T20:35:14.904Z,25.60
2023-08-24T20:37:47.464Z,25.60
2023-08-24T20:40:16.047Z,25.70
2023-08-24T20:42:44.340Z,25.60
2023-08-24T20:45:13.848Z,25.60
2023-08-24T20:47:42.555Z,25.50
2023-08-24T20:50:13.382Z,25.50
2023-08-24T20:52:40.609Z,25.50
2023-08-24T20:55:16.866Z,25.50
2023-08-24T20:57:45.419Z,25.50
2023-08-24T21:00:14.321Z,25.50
2023-08-24T21:02:43.531Z,25.50
2023-08-24T21:05:13.117Z,25.50
2023-08-24T21:07:41.754Z,25.50
2023-08-24T21:10:12.870Z,25.40
2023-08-24T21:12:49.592Z,25.30
2023-08-24T21:15:19.736Z,25.30
2023-08-24T21:17:53.012Z,25.30
2023-08-24T21:20:30.968Z,25.30
2023-08-24T21:22:58.956Z,25.40
2023-08-24T21:25:33.044Z,25.40
2023-08-24T21:28:11.905Z,25.10
2023-08-24T21:30:51.028Z,25.00
2023-08-24T21:33:21.030Z,24.90
2023-08-24T21:35:50.609Z,24.90
2023-08-24T21:38:19.206Z,24.90
2023-08-24T21:40:48.036Z,24.90
2023-08-24T21:43:25.618Z,25.00
2023-08-24T21:45:58.028Z,25.00
2023-08-24T21:48:25.447Z,24.90
2023-08-24T21:50:54.424Z,25.00
2023-08-24T21:53:23.179Z,25.00
2023-08-24T21:55:52.733Z,25.10
2023-08-24T21:58:22.406Z,25.10
2023-08-24T22:01:19.890Z,25.10
2023-08-24T22:03:58.560Z,25.10
2023-08-24T22:06:30.136Z,25.10
2023-08-24T22:09:00.878Z,25.10
2023-08-24T22:11:36.963Z,25.10
2023-08-24T22:14:14.159Z,24.90
2023-08-24T22:16:44.586Z,24.90
2023-08-24T22:19:26.607Z,24.90
2023-08-24T22:21:57.404Z,24.90
2023-08-24T22:24:25.124Z,24.90
2023-08-24T22:26:54.519Z,24.90
2023-08-24T22:29:26.404Z,24.80
2023-08-24T22:31:54.880Z,24.70
2023-08-24T22:34:27.596Z,24.60
2023-08-24T22:37:03.994Z,24.60
2023-08-24T22:39:40.374Z,24.80
2023-08-24T22:42:10.151Z,24.80
2023-08-24T22:44:40.501Z,24.70
2023-08-24T22:47:16.199Z,24.50
2023-08-24T22:49:47.198Z,24.40
2023-08-24T22:52:16.250Z,24.30
2023-08-24T22:54:44.548Z,24.10
2023-08-24T22:57:19.083Z,24.10
2023-08-24T22:59:49.414Z,24.00
2023-08-24T23:02:22.529Z,24.00
2023-08-24T23:04:50.531Z,24.00
2023-08-24T23:07:19.667Z,24.00
2023-08-24T23:09:53.295Z,24.00
2023-08-24T23:12:30.866Z,24.00
2023-08-24T23:14:59.380Z,24.00
2023-08-24T23:17:36.280Z,24.00
2023-08-24T23:20:08.459Z,24.00
2023-08-24T23:22:37.147Z,23.70
2023-08-24T23:25:06.822Z,23.50
2023-08-24T23:27:35.627Z,23.40
2023-08-24T23:30:09.826Z,23.50
2023-08-24T23:32:41.294Z,23.60
2023-08-24T23:35:15.836Z,23.70
2023-08-24T23:37:47.562Z,23.70
2023-08-24T23:40:21.276Z,23.80
2023-08-24T23:42:50.797Z,23.80
2023-08-24T23:45:19.324Z,23.90
2023-08-24T23:47:47.864Z,23.90
2023-08-24T23:50:18.134Z,23.80
2023-08-24T23:52:48.012Z,23.60
2023-08-24T23:55:17.266Z,23.50
2023-08-24T23:57:47.269Z,23.50
